Metar Report
Metar
METAR KULS 231056Z AUTO 32005KT 10SM CLR 18/17 A3013 A02 488
METAR KULS 230956Z AUTO 06011KT 10SM CLR 18/17 A3011 A02 487
METAR KULS 230856Z AUTO 07012KT 10SM SCT005 SCT008 SCT013 18/17 A3014 A02 486
METAR KULS 230756Z AUTO 03008KT 10SM -VCTSRA SCT007 BKN013 BKN019 18/17 A3013 A02 485
METAR KULS 230656Z AUTO 13015KT 10SM -TSRA BKN008 BKN022 OVC060 18/17 A3013 A02 484
METAR KULS 230556Z AUTO 00000KT 10SM -VCTSRA BKN075 22/18 A3017 A02 483
METAR KULS 230456Z AUTO 36006KT 10SM SCT075 24/17 A3013 A02 482
METAR KULS 230356Z AUTO 04007KT 10SM CLR 24/17 A3006 A02 481
METAR KULS 230256Z AUTO 09009KT 10SM CLR 25/18 A3001 A02 480
METAR KULS 230156Z AUTO 09011G16KT 10SM CLR 27/17 A2996 A02 479
METAR KULS 230056Z AUTO 09012KT 10SM CLR 30/18 A2994 A02 478
METAR KULS 222356Z AUTO 08010KT 10SM CLR 32/18 A2994 A02 477
METAR KULS 222256Z AUTO 06010KT 030V090 10SM CLR 35/18 A2992 A02 476
METAR KULS 222156Z AUTO 00000KT 10SM CLR 34/15 A2993 A02 475
METAR KULS 222056Z AUTO 00000KT 10SM CLR 33/17 A2994 A02 474
METAR KULS 221956Z AUTO 03004KT 10SM CLR 33/18 A2995 A02 473
METAR KULS 221856Z AUTO 01005KT 10SM CLR 32/18 A2996 A02 472
METAR KULS 221756Z AUTO 00000KT 10SM CLR 31/16 A2998 A02 471
METAR KULS 221656Z AUTO 25004KT 10SM CLR 29/14 A2999 A02 470
METAR KULS 221556Z AUTO 17008KT 10SM CLR 26/17 A2999 A02 469
METAR KULS 221456Z AUTO 15011KT 10SM CLR 24/17 A3001 A02 468
METAR KULS 221356Z AUTO 15013KT 10SM CLR 21/18 A3001 A02 467
METAR KULS 221256Z AUTO 14012G16KT 10SM CLR 19/17 A3001 A02 466
METAR KULS 221156Z AUTO 14013KT 10SM CLR 19/17 A3000 A02 465
METAR KULS 221056Z AUTO 12013KT 10SM CLR 21/18 A3001 A02 464
METAR KULS 220956Z AUTO 11011KT 10SM CLR 21/18 A3001 A02 463
METAR KULS 220856Z AUTO 09005KT 10SM CLR 21/18 A3002 A02 462
METAR KULS 220756Z AUTO 05006KT 10SM CLR 21/17 A3006 A02 461
METAR KULS 220656Z AUTO 02008KT 10SM CLR 22/17 A3007 A02 460
METAR KULS 220556Z AUTO 13013G17KT 10SM CLR 23/17 A3003 A02 459
METAR KULS 220456Z AUTO 13014G19KT 10SM CLR 24/18 A3001 A02 458
METAR KULS 220356Z AUTO 12015G19KT 10SM CLR 24/18 A3001 A02 457
METAR KULS 220256Z AUTO 11012KT 10SM CLR 24/17 A3000 A02 456
METAR KULS 220156Z AUTO 11016G22KT 10SM CLR 27/17 A2998 A02 455
METAR KULS 220056Z AUTO 10015KT 10SM CLR 29/18 A2997 A02 454
METAR KULS 212356Z AUTO 10017G22KT 10SM CLR 31/18 A2998 A02 453
METAR KULS 212256Z AUTO 11017G23KT 10SM CLR 32/19 A3000 A02 452
METAR KULS 212156Z AUTO 10016G20KT 10SM CLR 32/19 A3001 A02 451
METAR KULS 212056Z AUTO 12011G19KT 10SM CLR 32/19 A3003 A02 450
METAR KULS 211956Z AUTO 13009KT 10SM CLR 31/18 A3005 A02 449
METAR KULS 211856Z AUTO 15008KT 10SM CLR 29/18 A3006 A02 448
METAR KULS 211756Z AUTO 11011G17KT 10SM CLR 29/19 A3007 A02 447
METAR KULS 211656Z AUTO 11011KT 10SM CLR 25/17 A3008 A02 446
METAR KULS 211556Z AUTO 10010G15KT 10SM CLR 24/17 A3008 A02 445
METAR KULS 211456Z AUTO 09009KT 10SM CLR 24/18 A3009 A02 444
METAR KULS 211356Z AUTO 08007KT 10SM CLR 21/18 A3008 A02 443
METAR KULS 211256Z AUTO 05005KT 10SM CLR 20/19 A3008 A02 442
METAR KULS 211156Z AUTO 07004KT 10SM CLR 17/16 A3006 A02 441
METAR KULS 211056Z AUTO 05003KT 10SM CLR 18/17 A3005 A02 440
METAR KULS 210956Z AUTO 00000KT 10SM CLR 18/16 A3003 A02 439
METAR KULS 210856Z AUTO 34004KT 10SM CLR 18/16 A3002 A02 438
METAR KULS 210756Z AUTO 33004KT 10SM CLR 18/16 A3000 A02 437
METAR KULS 210656Z AUTO 00000KT 10SM CLR 22/13 A2998 A02 436
METAR KULS 210556Z AUTO 12010KT 10SM CLR 22/14 A2999 A02 435
METAR KULS 210456Z AUTO 13018KT 10SM SCT010 SCT013 SCT019 21/15 A3001 A02 434
METAR KULS 210356Z AUTO 05012KT 10SM -RA SCT007 SCT010 SCT015 19/16 A3006 A02 433
METAR KULS 210256Z AUTO 04016G21KT 10SM -TSRA SCT005 SCT011 21/14 A3000 A02 432
METAR KULS 210156Z AUTO 05020G24KT 10SM TS SCT010 SCT018 SCT024 22/14 A2991 A02 431
METAR KULS 210056Z AUTO 19006KT 150V230 10SM -VCTSRA SCT014 SCT020 24/14 A2991 A02 430
METAR KULS 202356Z AUTO 28015G28KT 10SM CLR 31/13 A2990 A02 429
METAR KULS 202256Z AUTO 02007KT 10SM CLR 37/16 A2985 A02 428
METAR KULS 202156Z AUTO 35007KT 10SM CLR 37/15 A2985 A02 427
METAR KULS 202056Z AUTO 31006KT 10SM CLR 37/16 A2986 A02 426
METAR KULS 201956Z AUTO 29007KT 10SM CLR 36/17 A2987 A02 425
METAR KULS 201856Z AUTO 16005KT 10SM CLR 36/16 A2988 A02 424
METAR KULS 201756Z AUTO 20006KT 10SM CLR 33/16 A2990 A02 423
METAR KULS 201656Z AUTO 18006KT 10SM CLR 32/16 A2992 A02 422
METAR KULS 201556Z AUTO 15011KT 10SM CLR 29/16 A2993 A02 421
METAR KULS 201456Z AUTO 14011KT 10SM CLR 27/14 A2993 A02 420
METAR KULS 201356Z AUTO 12007KT 10SM CLR 24/14 A2994 A02 419
METAR KULS 201256Z AUTO 07005KT 10SM CLR 18/14 A2995 A02 418
METAR KULS 201156Z AUTO 00000KT 10SM CLR 18/13 A2994 A02 417
METAR KULS 201056Z AUTO 17004KT 10SM CLR 18/14 A2993 A02 416
METAR KULS 200956Z AUTO 17005KT 10SM CLR 18/13 A2993 A02 415
METAR KULS 200856Z AUTO 13004KT 10SM CLR 17/13 A2993 A02 414
METAR KULS 200756Z AUTO 13003KT 10SM CLR 18/14 A2992 A02 413
METAR KULS 200656Z AUTO 00000KT 10SM CLR 19/13 A2993 A02 412
METAR KULS 200556Z AUTO 08006KT 10SM CLR 20/14 A2994 A02 411
METAR KULS 200456Z AUTO 15005KT 10SM CLR 22/13 A2994 A02 410
METAR KULS 200356Z AUTO 12005KT 10SM CLR 21/15 A2994 A02 409
METAR KULS 200256Z AUTO 14009KT 10SM CLR 26/13 A2993 A02 408
METAR KULS 200156Z AUTO 11005KT 10SM CLR 24/16 A2990 A02 407
METAR KULS 200056Z AUTO 32006KT 10SM VCTS CLR 25/17 A2991 A02 406
METAR KULS 192356Z AUTO 20012KT 10SM CLR 31/13 A2986 A02 405
METAR KULS 192256Z AUTO 20007KT 10SM CLR 32/18 A2989 A02 404
METAR KULS 192156Z AUTO 00000KT 10SM CLR 34/19 A2989 A02 403
METAR KULS 192056Z AUTO 00000KT 10SM CLR 33/19 A2989 A02 402
METAR KULS 191956Z AUTO 00000KT 10SM CLR 33/18 A2990 A02 401
METAR KULS 191856Z AUTO 18005KT 10SM CLR 32/18 A2993 A02 400
METAR KULS 191756Z AUTO 15008KT 10SM CLR 31/18 A2995 A02 399
METAR KULS 191656Z AUTO 08004KT 10SM CLR 29/19 A2996 A02 398
METAR KULS 191556Z AUTO 36005KT 10SM CLR 26/18 A2997 A02 397
METAR KULS 191456Z AUTO 18007KT 10SM CLR 24/18 A2996 A02 396
METAR KULS 191356Z AUTO 00000KT 7SM CLR 21/18 A2997 A02 395
METAR KULS 191256Z AUTO 00000KT 1 3/4SM BR VV007 18/18 A2996 A02 394
METAR KULS 191156Z AUTO 00000KT 1 1/4SM BR VV007 18/18 A2996 A02 393
METAR KULS 191056Z AUTO 17004KT 5SM BR CLR 18/18 A2996 A02 392
METAR KULS 190956Z AUTO 17005KT 7SM CLR 19/18 A2996 A02 391
METAR KULS 190856Z AUTO 14004KT 10SM CLR 19/18 A2996 A02 390
METAR KULS 190756Z AUTO 14005KT 10SM CLR 19/18 A2997 A02 389
METAR KULS 190656Z AUTO 15006KT 10SM CLR 21/18 A2997 A02 388
METAR KULS 190556Z AUTO 14010KT 10SM CLR 22/19 A2997 A02 387
METAR KULS 190456Z AUTO 14011KT 10SM CLR 22/18 A2998 A02 386
METAR KULS 190356Z AUTO 13012KT 10SM CLR 24/19 A2998 A02 385
METAR KULS 190256Z AUTO 12009KT 10SM CLR 25/18 A2996 A02 384
METAR KULS 190156Z AUTO 14008KT 10SM CLR 28/18 A2995 A02 383
METAR KULS 190056Z AUTO 13007KT 10SM CLR 29/17 A2994 A02 382
METAR KULS 182356Z AUTO 15004KT 10SM CLR 32/19 A2996 A02 381
METAR KULS 182256Z AUTO 17003KT 10SM CLR 32/18 A2996 A02 380
METAR KULS 182156Z AUTO 13005KT 10SM CLR 31/18 A2997 A02 379
METAR KULS 182056Z AUTO 11004KT 4SM HZ CLR 29/18 A2999 A02 378
METAR KULS 181956Z AUTO 00000KT 7SM CLR 29/18 A3001 A02 377
METAR KULS 181856Z AUTO 00000KT 10SM CLR 28/18 A3002 A02 376
METAR KULS 181756Z AUTO 10005KT 10SM CLR 26/18 A3003 A02 375
METAR KULS 181656Z AUTO 29005KT 10SM CLR 25/18 A3006 A02 374
METAR KULS 181556Z AUTO 31005KT 10SM CLR 24/18 A3007 A02 373
METAR KULS 181456Z AUTO 20006KT 10SM CLR 22/18 A3006 A02 372
METAR KULS 181356Z AUTO 23006KT 10SM CLR 21/18 A3006 A02 371
METAR KULS 181256Z AUTO 00000KT 5SM BR CLR 18/18 A3007 A02 370
METAR KULS 181156Z AUTO 17003KT 5SM BR CLR 18/18 A3005 A02 369
METAR KULS 181056Z AUTO 00000KT 10SM CLR 18/17 A3004 A02 368